Time;durP1;ratioP1;P1;durP2;ratioP2;P2;SDS_P1;SDS_P2;PMS_P1;PMS_P2;Temp;Humidity;BMP_temperature;BMP_pressure;BME280_temperature;BME280_humidity;BME280_pressure;Samples;Min_cycle;Max_cycle;Signal;HPM_P1;HPM_P2
2021/09/06 00:00:33;;;;;;;;;;;;;;;8.20;70.32;100128.28;5015952;28;19959;-93
2021/09/06 00:03:00;;;;;;;;;;;;;;;8.20;70.52;100122.81;5032677;28;20245;-95
2021/09/06 00:05:26;;;;;;;;;;;;;;;8.23;70.34;100119.56;5049874;28;19924;-95
2021/09/06 00:07:54;;;;;;;;;;;;;;;8.26;70.39;100119.00;5055653;28;19931;-94
2021/09/06 00:10:19;;;;;;;;;;;;;;;8.26;69.67;100121.72;5072790;28;19925;-93
2021/09/06 00:12:51;;;;;;;;;;;;;;;8.31;69.89;100123.59;5049043;28;19925;-93
2021/09/06 00:15:18;;;;;;;;;;;;;;;8.34;69.79;100123.06;5035629;28;20333;-94
2021/09/06 00:17:44;;;;;;;;;;;;;;;8.34;69.94;100115.69;5019114;28;19925;-95
2021/09/06 00:20:10;;;;;;;;;;;;;;;8.36;69.64;100126.31;5019331;28;19947;-94
2021/09/06 00:22:36;;;;;;;;;;;;;;;8.36;69.57;100120.88;5019168;28;19925;-94
2021/09/06 00:25:02;;;;;;;;;;;;;;;8.24;68.76;100116.56;5035495;28;19925;-96
2021/09/06 00:27:31;;;;;;;;;;;;;;;8.27;69.53;100122.53;5021700;28;19929;-95
2021/09/06 00:30:07;;;;;;;;;;;;;;;8.30;69.62;100119.25;5022313;28;19924;-94
2021/09/06 00:32:33;;;;;;;;;;;;;;;8.29;68.19;100114.91;5035711;28;19969;-93
2021/09/06 00:35:02;;;;;;;;;;;;;;;8.30;69.14;100114.63;5019288;28;20067;-93
2021/09/06 00:37:30;;;;;;;;;;;;;;;8.29;69.16;100112.19;5035854;28;20008;-95
2021/09/06 00:39:56;;;;;;;;;;;;;;;8.26;68.78;100119.00;5019416;28;19932;-94
2021/09/06 00:42:22;;;;;;;;;;;;;;;8.22;68.94;100116.03;5035422;28;19942;-94
2021/09/06 00:44:48;;;;;;;;;;;;;;;8.26;69.10;100118.19;5027872;28;20074;-95
2021/09/06 00:47:16;;;;;;;;;;;;;;;8.27;68.77;100114.38;5035936;28;20023;-95
2021/09/06 00:49:42;;;;;;;;;;;;;;;8.28;68.93;100113.25;5019480;28;19979;-94
2021/09/06 00:52:09;;;;;;;;;;;;;;;8.29;68.67;100112.19;5019427;28;19921;-94
2021/09/06 00:54:35;;;;;;;;;;;;;;;8.35;69.03;100113.81;5019212;28;19924;-95
2021/09/06 00:57:12;;;;;;;;;;;;;;;8.31;68.42;100121.72;5036092;28;19925;-96
2021/09/06 00:59:43;;;;;;;;;;;;;;;8.34;69.06;100117.59;5040884;28;19928;-93
2021/09/06 01:02:10;;;;;;;;;;;;;;;8.34;68.25;100118.41;5039267;28;19932;-96
2021/09/06 01:04:36;;;;;;;;;;;;;;;8.35;68.66;100117.34;5039002;28;19924;-94
2021/09/06 01:07:35;;;;;;;;;;;;;;;8.33;67.84;100127.69;5021565;28;19924;-93
2021/09/06 01:10:33;;;;;;;;;;;;;;;8.29;68.04;100125.81;5034774;28;19970;-96
2021/09/06 01:13:35;;;;;;;;;;;;;;;8.28;68.30;100129.59;5068205;28;19925;-94
2021/09/06 01:16:03;;;;;;;;;;;;;;;8.30;67.84;100130.97;5067548;28;20515;-95
2021/09/06 01:18:29;;;;;;;;;;;;;;;8.18;68.49;100128.56;5044605;28;19928;-95
2021/09/06 01:21:03;;;;;;;;;;;;;;;8.18;68.80;100128.56;5060474;28;19976;-95
2021/09/06 01:23:48;;;;;;;;;;;;;;;8.16;68.90;100125.28;5056310;28;19924;-94
2021/09/06 01:26:19;;;;;;;;;;;;;;;8.11;68.59;100127.22;5059475;28;19925;-96
2021/09/06 01:28:46;;;;;;;;;;;;;;;8.12;68.53;100134.31;5041786;28;19930;-94
2021/09/06 01:31:24;;;;;;;;;;;;;;;;;;;;;
2021/09/06 01:34:14;;;;;;;;;;;;;;;8.06;68.51;100138.13;5041562;28;19925;-94
2021/09/06 01:36:41;;;;;;;;;;;;;;;8.11;68.86;100136.22;5055433;28;19960;-93
2021/09/06 01:39:07;;;;;;;;;;;;;;;8.05;68.96;100128.34;5058252;28;19963;-96
2021/09/06 01:41:34;;;;;;;;;;;;;;;7.99;69.25;100133.78;5072675;28;19990;-94
2021/09/06 01:44:02;;;;;;;;;;;;;;;8.03;69.08;100135.94;5061798;28;20388;-96
2021/09/06 01:46:31;;;;;;;;;;;;;;;7.99;68.72;100135.69;5051401;28;19924;-96
2021/09/06 01:49:02;;;;;;;;;;;;;;;7.87;68.87;100135.97;5041585;28;20345;-96
2021/09/06 01:51:37;;;;;;;;;;;;;;;7.88;69.47;100136.78;5042797;28;20372;-96
2021/09/06 01:54:04;;;;;;;;;;;;;;;7.87;69.41;100146.06;5043105;28;20378;-94
2021/09/06 01:56:30;;;;;;;;;;;;;;;7.89;68.93;100150.13;5027361;28;19928;-93
2021/09/06 01:59:01;;;;;;;;;;;;;;;7.85;69.71;100150.97;5039229;28;19925;-95
2021/09/06 02:01:28;;;;;;;;;;;;;;;7.86;69.18;100144.44;5016427;28;19925;-96
2021/09/06 02:03:54;;;;;;;;;;;;;;;7.84;69.29;100154.75;5002219;28;20371;-93
2021/09/06 02:06:21;;;;;;;;;;;;;;;7.83;69.19;100147.69;5014927;28;19933;-96
2021/09/06 02:08:55;;;;;;;;;;;;;;;7.76;69.67;100146.06;4998358;28;19932;-95
2021/09/06 02:11:26;;;;;;;;;;;;;;;7.73;70.01;100151.25;5014947;28;20860;-94
2021/09/06 02:13:54;;;;;;;;;;;;;;;7.72;69.93;100155.06;5014706;28;19925;-93
2021/09/06 02:16:20;;;;;;;;;;;;;;;7.70;69.84;100157.22;4998669;28;19961;-96
2021/09/06 02:18:46;;;;;;;;;;;;;;;7.70;69.42;100151.78;5038989;28;19924;-96
2021/09/06 02:21:12;;;;;;;;;;;;;;;7.68;69.67;100159.41;5021461;28;19967;-94
2021/09/06 02:23:39;;;;;;;;;;;;;;;7.64;69.88;100159.13;5020936;28;19948;-96
2021/09/06 02:26:05;;;;;;;;;;;;;;;7.66;69.98;100156.97;5014473;28;19929;-94
2021/09/06 02:28:34;;;;;;;;;;;;;;;7.64;69.71;100161.84;5027705;28;19965;-95
2021/09/06 02:31:03;;;;;;;;;;;;;;;7.53;70.32;100162.94;5021163;28;19928;-96
2021/09/06 02:33:49;;;;;;;;;;;;;;;7.51;70.09;100167.84;5030384;28;19971;-96
2021/09/06 02:36:30;;;;;;;;;;;;;;;7.49;70.54;100168.13;5003290;28;19954;-93
2021/09/06 02:38:56;;;;;;;;;;;;;;;7.49;69.99;100164.59;5018982;28;19925;-95
2021/09/06 02:41:22;;;;;;;;;;;;;;;7.49;70.33;100168.13;5017407;28;19948;-94
2021/09/06 02:43:51;;;;;;;;;;;;;;;7.53;69.89;100168.38;5017230;28;19929;-94
2021/09/06 02:46:17;;;;;;;;;;;;;;;7.60;70.14;100171.66;5017498;28;19921;-95
2021/09/06 02:48:43;;;;;;;;;;;;;;;7.56;69.99;100175.19;5001264;28;19925;-95
2021/09/06 02:51:09;;;;;;;;;;;;;;;7.56;69.94;100183.38;5009373;28;19921;-93
2021/09/06 02:53:35;;;;;;;;;;;;;;;7.52;70.24;100178.47;5018409;28;19931;-96
2021/09/06 02:56:04;;;;;;;;;;;;;;;7.52;70.54;100183.91;4997565;28;19925;-95
2021/09/06 02:58:35;;;;;;;;;;;;;;;7.58;70.09;100186.63;5025828;28;19925;-95
2021/09/06 03:01:00;;;;;;;;;;;;;;;7.62;70.31;100188.53;5033680;28;19936;-95
2021/09/06 03:03:26;;;;;;;;;;;;;;;7.67;70.26;100195.88;5033474;28;20380;-94
2021/09/06 03:05:56;;;;;;;;;;;;;;;7.66;70.24;100189.63;5049835;28;19924;-92
2021/09/06 03:08:22;;;;;;;;;;;;;;;7.70;70.07;100189.88;5033021;28;20027;-94
2021/09/06 03:10:50;;;;;;;;;;;;;;;7.69;70.18;100202.69;5069248;28;19927;-92
2021/09/06 03:13:17;;;;;;;;;;;;;;;7.76;70.46;100199.69;5036857;28;20027;-95
2021/09/06 03:15:46;;;;;;;;;;;;;;;7.77;69.95;100204.03;5052254;28;19924;-92
2021/09/06 03:18:12;;;;;;;;;;;;;;;7.79;70.42;100204.59;5061372;28;20011;-92
2021/09/06 03:20:57;;;;;;;;;;;;;;;7.86;69.77;100207.84;5026543;28;19924;-93
2021/09/06 03:23:22;;;;;;;;;;;;;;;7.84;70.16;100212.75;5056648;28;20562;-94
2021/09/06 03:25:49;;;;;;;;;;;;;;;7.85;70.17;100206.22;5038553;28;19975;-93
2021/09/06 03:28:18;;;;;;;;;;;;;;;7.83;70.20;100216.56;5056085;28;19992;-94
2021/09/06 03:30:44;;;;;;;;;;;;;;;7.83;69.48;100211.13;5056479;28;20108;-93
2021/09/06 03:33:13;;;;;;;;;;;;;;;7.87;69.71;100217.66;5056252;28;19966;-93
2021/09/06 03:35:43;;;;;;;;;;;;;;;7.91;69.59;100224.19;5060070;28;19931;-95
2021/09/06 03:38:12;;;;;;;;;;;;;;;7.97;69.16;100214.09;5034635;28;19970;-94
2021/09/06 03:40:38;;;;;;;;;;;;;;;7.92;69.33;100217.66;5064970;28;19925;-94
2021/09/06 03:43:05;;;;;;;;;;;;;;;7.95;69.67;100219.03;5056370;28;19931;-95
2021/09/06 03:45:32;;;;;;;;;;;;;;;8.03;69.36;100218.44;5036121;28;20349;-92
2021/09/06 03:47:59;;;;;;;;;;;;;;;8.04;69.03;100222.81;5035897;28;19924;-93
2021/09/06 03:50:25;;;;;;;;;;;;;;;8.03;69.09;100223.09;5046408;28;19928;-94
2021/09/06 03:52:51;;;;;;;;;;;;;;;8.00;68.60;100221.72;5074012;28;19928;-96
2021/09/06 03:55:20;;;;;;;;;;;;;;;7.99;69.25;100214.66;5032742;28;19924;-96
2021/09/06 03:57:47;;;;;;;;;;;;;;;8.07;68.77;100218.72;5055229;28;20019;-92
2021/09/06 04:00:16;;;;;;;;;;;;;;;8.12;68.89;100225.00;5038925;28;20397;-93
2021/09/06 04:02:51;;;;;;;;;;;;;;;8.10;69.23;100226.34;5072676;28;20434;-93
2021/09/06 04:05:23;;;;;;;;;;;;;;;8.09;68.62;100228.25;5047068;28;19931;-90
2021/09/06 04:07:51;;;;;;;;;;;;;;;8.12;69.23;100225.00;5034597;28;19925;-91
2021/09/06 04:10:18;;;;;;;;;;;;;;;8.19;69.58;100227.44;5068049;28;19929;-95
2021/09/06 04:12:44;;;;;;;;;;;;;;;8.25;68.74;100223.63;5048791;28;19924;-93
2021/09/06 04:15:10;;;;;;;;;;;;;;;8.27;68.99;100231.50;5059426;28;19925;-93
2021/09/06 04:17:37;;;;;;;;;;;;;;;8.27;68.62;100224.13;5042592;28;19924;-93
2021/09/06 04:20:05;;;;;;;;;;;;;;;8.34;68.00;100223.84;5055707;28;19931;-93
2021/09/06 04:22:37;;;;;;;;;;;;;;;8.40;68.39;100225.50;5057859;28;20352;-96
2021/09/06 04:25:34;;;;;;;;;;;;;;;8.48;67.99;100227.69;5029402;28;19925;-90
2021/09/06 04:28:02;;;;;;;;;;;;;;;8.49;68.11;100221.13;5046992;28;20095;-92
2021/09/06 04:30:29;;;;;;;;;;;;;;;8.51;68.65;100221.69;5034667;28;19925;-95
2021/09/06 04:32:55;;;;;;;;;;;;;;;8.53;67.87;100227.66;5035394;28;19925;-93
2021/09/06 04:35:21;;;;;;;;;;;;;;;8.53;67.64;100224.13;5051248;28;20342;-92
2021/09/06 04:37:47;;;;;;;;;;;;;;;8.58;67.67;100232.28;5069629;28;19979;-92
2021/09/06 04:40:18;;;;;;;;;;;;;;;8.61;68.02;100232.56;5060080;28;19924;-85
2021/09/06 04:42:51;;;;;;;;;;;;;;;8.64;67.77;100232.00;5055276;28;19928;-81
2021/09/06 04:45:19;;;;;;;;;;;;;;;8.62;67.46;100228.72;5070274;28;19959;-84
2021/09/06 04:47:48;;;;;;;;;;;;;;;8.61;66.73;100235.28;5069997;28;19925;-84
2021/09/06 04:50:17;;;;;;;;;;;;;;;8.58;67.26;100229.56;5071426;28;20039;-84
2021/09/06 04:52:43;;;;;;;;;;;;;;;8.61;67.29;100234.44;5069247;28;20339;-83
2021/09/06 04:55:12;;;;;;;;;;;;;;;8.65;67.00;100232.81;5056870;28;19924;-83
2021/09/06 04:57:41;;;;;;;;;;;;;;;8.74;66.97;100228.41;5059800;28;20439;-82
2021/09/06 05:00:08;;;;;;;;;;;;;;;8.77;67.58;100230.56;5019656;28;19925;-83
2021/09/06 05:02:34;;;;;;;;;;;;;;;8.85;67.11;100238.19;5053201;28;19924;-84
2021/09/06 05:05:02;;;;;;;;;;;;;;;8.91;67.06;100241.72;5052498;28;19925;-91
2021/09/06 05:07:30;;;;;;;;;;;;;;;8.96;66.34;100238.94;5052349;28;20346;-82
2021/09/06 05:09:58;;;;;;;;;;;;;;;8.98;66.55;100233.22;5035843;28;20398;-84
2021/09/06 05:12:26;;;;;;;;;;;;;;;9.03;66.40;100233.19;5053438;28;19972;-84
2021/09/06 05:14:54;;;;;;;;;;;;;;;9.09;63.62;100241.06;5071466;28;20034;-84
2021/09/06 05:17:20;;;;;;;;;;;;;;;9.16;64.57;100238.84;5071758;28;20028;-83
2021/09/06 05:19:46;;;;;;;;;;;;;;;9.21;64.53;100238.03;5072334;28;20017;-86
2021/09/06 05:22:12;;;;;;;;;;;;;;;9.27;64.53;100238.78;5071052;28;19924;-83
2021/09/06 05:24:39;;;;;;;;;;;;;;;9.24;64.09;100242.06;5071629;28;19924;-83
2021/09/06 05:27:07;;;;;;;;;;;;;;;9.25;64.89;100244.53;5072236;28;19924;-84
2021/09/06 05:29:33;;;;;;;;;;;;;;;9.27;65.36;100241.53;5071496;28;19925;-83
2021/09/06 05:31:59;;;;;;;;;;;;;;;9.34;65.67;100239.31;5071615;28;19924;-83
2021/09/06 05:34:27;;;;;;;;;;;;;;;9.38;64.89;100249.38;5068338;28;19931;-84
2021/09/06 05:36:54;;;;;;;;;;;;;;;9.39;64.71;100245.53;5071201;28;19964;-83
2021/09/06 05:39:20;;;;;;;;;;;;;;;9.44;64.28;100255.63;5070117;28;20366;-84
2021/09/06 05:42:00;;;;;;;;;;;;;;;9.50;64.88;100243.56;5052725;28;20406;-83
2021/09/06 05:44:29;;;;;;;;;;;;;;;9.53;63.65;100253.09;5071280;28;19935;-93
2021/09/06 05:46:56;;;;;;;;;;;;;;;9.56;63.94;100247.88;5042431;28;19931;-80
2021/09/06 05:49:24;;;;;;;;;;;;;;;9.64;64.40;100246.50;5105276;28;19925;-81
2021/09/06 05:52:15;;;;;;;;;;;;;;;9.74;63.59;100260.06;5073645;28;20055;-81
2021/09/06 05:54:43;;;;;;;;;;;;;;;9.80;62.70;100263.56;5057490;28;19932;-81
2021/09/06 05:57:13;;;;;;;;;;;;;;;9.87;64.49;100258.59;5062644;28;20031;-80
2021/09/06 05:59:40;;;;;;;;;;;;;;;9.94;63.26;100261.03;5057883;28;20429;-86
2021/09/06 06:02:05;;;;;;;;;;;;;;;9.94;61.51;100261.03;5041697;28;19931;-89
2021/09/06 06:04:31;;;;;;;;;;;;;;;9.97;60.13;100263.19;5055595;28;19924;-82
2021/09/06 06:07:00;;;;;;;;;;;;;;;10.03;58.75;100260.13;5089571;28;19977;-83
2021/09/06 06:09:53;;;;;;;;;;;;;;;10.06;59.66;100267.72;5090579;28;20309;-95
2021/09/06 06:12:19;;;;;;;;;;;;;;;10.10;60.37;100268.78;5038867;28;19950;-86
2021/09/06 06:14:45;;;;;;;;;;;;;;;10.20;59.55;100262.44;5071523;28;19921;-79
2021/09/06 06:17:11;;;;;;;;;;;;;;;10.31;59.14;100263.19;5055441;28;19924;-82
2021/09/06 06:19:40;;;;;;;;;;;;;;;10.29;57.01;100265.38;5073841;28;19937;-87
2021/09/06 06:22:25;;;;;;;;;;;;;;;10.24;55.30;100271.69;5054091;28;20425;-89
2021/09/06 06:25:10;;;;;;;;;;;;;;;10.21;57.06;100264.06;5067790;28;19959;-88
2021/09/06 06:27:43;;;;;;;;;;;;;;;10.25;57.48;100269.75;5068459;28;19924;-88
2021/09/06 06:30:12;;;;;;;;;;;;;;;10.15;57.03;100275.31;5071751;28;19925;-89
2021/09/06 06:32:38;;;;;;;;;;;;;;;10.23;57.92;100278.25;5072206;28;19955;-91
2021/09/06 06:35:14;;;;;;;;;;;;;;;10.30;54.31;100272.50;5058059;28;19931;-93
2021/09/06 06:37:40;;;;;;;;;;;;;;;10.29;53.77;100277.13;5040026;28;19925;-91
2021/09/06 06:40:07;;;;;;;;;;;;;;;10.24;54.19;100279.06;5039554;28;20027;-95
2021/09/06 06:42:38;;;;;;;;;;;;;;;10.25;54.39;100276.03;5072699;28;19935;-90
2021/09/06 06:45:08;;;;;;;;;;;;;;;10.38;55.26;100276.50;5085681;28;19924;-91
2021/09/06 06:47:34;;;;;;;;;;;;;;;10.53;55.91;100273.63;5053151;28;19929;-96
2021/09/06 06:50:00;;;;;;;;;;;;;;;10.62;55.48;100265.59;5037809;28;20305;-82
2021/09/06 06:52:27;;;;;;;;;;;;;;;10.86;55.30;100271.91;5050779;28;19974;-82
2021/09/06 06:54:53;;;;;;;;;;;;;;;10.90;53.25;100272.94;5071588;28;20305;-81
2021/09/06 06:57:19;;;;;;;;;;;;;;;10.94;51.42;100282.19;5052293;28;19924;-82
2021/09/06 06:59:46;;;;;;;;;;;;;;;10.93;50.13;100275.09;5049700;28;19947;-78
2021/09/06 07:02:13;;;;;;;;;;;;;;;11.03;51.40;100276.91;5069488;28;20018;-77
2021/09/06 07:04:40;;;;;;;;;;;;;;;11.15;51.03;100281.94;5053531;28;20389;-77
2021/09/06 07:07:08;;;;;;;;;;;;;;;11.24;51.31;100278.25;5083216;28;19927;-83
2021/09/06 07:09:34;;;;;;;;;;;;;;;11.21;52.48;100276.09;5053362;28;19924;-82
2021/09/06 07:12:00;;;;;;;;;;;;;;;11.18;52.03;100287.63;5052778;28;20178;-83
2021/09/06 07:14:27;;;;;;;;;;;;;;;11.17;50.93;100279.72;5050071;28;19927;-83
2021/09/06 07:16:54;;;;;;;;;;;;;;;11.31;50.11;100283.38;5069126;28;19924;-84
2021/09/06 07:19:20;;;;;;;;;;;;;;;11.35;48.49;100281.66;5049323;28;19932;-84
2021/09/06 07:21:49;;;;;;;;;;;;;;;11.50;48.71;100267.78;5063585;28;19925;-84
2021/09/06 07:24:14;;;;;;;;;;;;;;;11.61;48.84;100268.44;5036724;28;20296;-84
2021/09/06 07:26:40;;;;;;;;;;;;;;;11.62;46.61;100269.25;5071032;28;20014;-84
2021/09/06 07:29:06;;;;;;;;;;;;;;;11.49;47.54;100271.63;5053097;28;19936;-80
2021/09/06 07:31:33;;;;;;;;;;;;;;;11.52;45.95;100276.53;5050342;28;19925;-78
2021/09/06 07:34:03;;;;;;;;;;;;;;;11.61;44.53;100278.59;5053546;28;19920;-85
2021/09/06 07:36:32;;;;;;;;;;;;;;;11.77;44.90;100275.31;5053078;28;19939;-86
2021/09/06 07:38:59;;;;;;;;;;;;;;;11.78;44.16;100284.34;5070700;28;19970;-86
2021/09/06 07:41:30;;;;;;;;;;;;;;;11.80;43.93;100284.06;5052936;28;19925;-84
2021/09/06 07:43:56;;;;;;;;;;;;;;;11.85;43.82;100276.59;5050972;28;19927;-86
2021/09/06 07:46:22;;;;;;;;;;;;;;;11.99;45.64;100284.88;5053111;28;19932;-81
2021/09/06 07:48:48;;;;;;;;;;;;;;;12.03;41.65;100280.44;5052865;28;20023;-79
2021/09/06 07:51:15;;;;;;;;;;;;;;;11.86;42.86;100277.44;5051579;28;20020;-80
2021/09/06 07:53:42;;;;;;;;;;;;;;;11.89;43.55;100280.38;5060293;28;19931;-84
2021/09/06 07:56:13;;;;;;;;;;;;;;;12.01;45.22;100279.91;5051651;28;20409;-82
2021/09/06 07:58:40;;;;;;;;;;;;;;;12.08;43.73;100283.06;5050614;28;19964;-79
2021/09/06 08:01:05;;;;;;;;;;;;;;;12.20;41.92;100280.69;5049714;28;20448;-79
2021/09/06 08:03:31;;;;;;;;;;;;;;;12.41;43.64;100278.41;5066936;28;19932;-80
2021/09/06 08:05:57;;;;;;;;;;;;;;;12.44;44.96;100272.31;5050783;28;20317;-86
2021/09/06 08:08:24;;;;;;;;;;;;;;;12.42;44.77;100277.31;5051585;28;20396;-79
2021/09/06 08:10:51;;;;;;;;;;;;;;;12.51;42.02;100271.09;5068566;28;20023;-79
2021/09/06 08:13:23;;;;;;;;;;;;;;;12.42;42.05;100276.50;5068050;28;19924;-87
2021/09/06 08:15:49;;;;;;;;;;;;;;;12.53;42.13;100277.94;5037624;28;19931;-87
2021/09/06 08:18:15;;;;;;;;;;;;;;;12.51;42.66;100268.38;5051614;28;19924;-87
2021/09/06 08:20:47;;;;;;;;;;;;;;;12.37;42.25;100276.56;5067266;28;19928;-89
2021/09/06 08:23:14;;;;;;;;;;;;;;;12.30;43.91;100278.91;5049357;28;19924;-87
2021/09/06 08:25:41;;;;;;;;;;;;;;;12.35;43.87;100279.63;5037095;28;19928;-87
2021/09/06 08:28:09;;;;;;;;;;;;;;;12.43;43.88;100275.38;5074342;28;19935;-87
2021/09/06 08:30:38;;;;;;;;;;;;;;;12.44;44.29;100283.28;5038557;28;20002;-87
2021/09/06 08:33:04;;;;;;;;;;;;;;;12.41;43.23;100280.34;5055720;28;19956;-87
2021/09/06 08:35:31;;;;;;;;;;;;;;;12.21;42.77;100281.50;5056943;28;19929;-87
2021/09/06 08:37:57;;;;;;;;;;;;;;;12.27;45.61;100279.50;5075381;28;19931;-88
2021/09/06 08:40:24;;;;;;;;;;;;;;;12.40;43.00;100270.50;5074227;28;19925;-87
2021/09/06 08:42:51;;;;;;;;;;;;;;;12.54;43.51;100281.47;5055489;28;19928;-86
2021/09/06 08:45:19;;;;;;;;;;;;;;;12.55;43.18;100281.19;5064802;28;19924;-86
2021/09/06 08:47:47;;;;;;;;;;;;;;;12.73;47.62;100271.25;5048180;28;19925;-79
2021/09/06 08:50:13;;;;;;;;;;;;;;;12.97;43.87;100282.00;5057589;28;20031;-83
2021/09/06 08:52:42;;;;;;;;;;;;;;;12.94;41.40;100279.88;5057497;28;19935;-82
2021/09/06 08:55:09;;;;;;;;;;;;;;;12.75;42.30;100280.00;5028960;28;19931;-83
2021/09/06 08:57:36;;;;;;;;;;;;;;;12.56;42.76;100268.28;5042286;28;19924;-87
2021/09/06 09:00:04;;;;;;;;;;;;;;;12.60;41.69;100281.09;5073296;28;19931;-87
2021/09/06 09:02:50;;;;;;;;;;;;;;;12.87;44.11;100274.78;5055564;28;19978;-82
2021/09/06 09:05:33;;;;;;;;;;;;;;;13.06;42.10;100269.22;5057547;28;20026;-83
2021/09/06 09:08:21;;;;;;;;;;;;;;;13.28;41.70;100275.94;5053633;28;20385;-89
2021/09/06 09:11:02;;;;;;;;;;;;;;;13.37;41.31;100274.06;5071345;28;19977;-82
2021/09/06 09:13:48;;;;;;;;;;;;;;;13.60;41.33;100278.50;5059238;28;19920;-88
2021/09/06 09:16:58;;;;;;;;;;;;;;;13.83;39.23;100276.59;5056645;28;20336;-80
2021/09/06 09:20:00;;;;;;;;;;;;;;;13.90;39.58;100267.09;5051953;28;20450;-88
2021/09/06 09:22:37;;;;;;;;;;;;;;;13.91;39.90;100277.81;5051177;28;19932;-84
2021/09/06 09:25:22;;;;;;;;;;;;;;;13.71;39.16;100267.25;5052761;28;19936;-82
2021/09/06 09:28:09;;;;;;;;;;;;;;;13.52;40.02;100273.75;5051086;28;20385;-85
2021/09/06 09:31:03;;;;;;;;;;;;;;;13.49;41.41;100281.78;5050664;28;19925;-80
2021/09/06 09:33:53;;;;;;;;;;;;;;;13.50;40.46;100273.22;5050715;28;19970;-90
2021/09/06 09:36:35;;;;;;;;;;;;;;;13.57;41.48;100267.31;5063809;28;20423;-83
2021/09/06 09:39:10;;;;;;;;;;;;;;;13.63;40.56;100272.38;5070457;28;20001;-88
2021/09/06 09:41:37;;;;;;;;;;;;;;;13.75;41.04;100263.59;5070628;28;19978;-90
2021/09/06 09:44:05;;;;;;;;;;;;;;;13.88;40.38;100272.13;5071301;28;19964;-82
2021/09/06 09:46:37;;;;;;;;;;;;;;;13.68;39.25;100271.47;5040614;28;20116;-83
2021/09/06 09:49:11;;;;;;;;;;;;;;;13.62;39.25;100270.75;5050580;28;19924;-87
2021/09/06 09:51:38;;;;;;;;;;;;;;;13.31;38.96;100273.41;5048731;28;20015;-82
2021/09/06 09:54:05;;;;;;;;;;;;;;;13.25;40.14;100274.63;5049777;28;19924;-85
2021/09/06 09:56:33;;;;;;;;;;;;;;;13.06;40.68;100273.88;5056250;28;19943;-81
2021/09/06 09:59:00;;;;;;;;;;;;;;;12.86;40.90;100272.38;5069779;28;19924;-91
2021/09/06 10:01:32;;;;;;;;;;;;;;;12.78;39.71;100276.66;5054126;28;19925;-83
2021/09/06 10:04:00;;;;;;;;;;;;;;;12.89;40.32;100277.25;5054055;28;19920;-84
2021/09/06 10:06:26;;;;;;;;;;;;;;;13.06;40.64;100271.94;5054944;28;19936;-83
2021/09/06 10:08:54;;;;;;;;;;;;;;;13.21;38.32;100275.50;5069294;28;19921;-84
2021/09/06 10:11:20;;;;;;;;;;;;;;;13.26;40.87;100270.75;5053870;28;19931;-79
2021/09/06 10:13:54;;;;;;;;;;;;;;;13.56;40.25;100265.69;5052582;28;20309;-76
2021/09/06 10:16:29;;;;;;;;;;;;;;;13.73;38.18;100265.03;5053764;28;19932;-80
2021/09/06 10:19:05;;;;;;;;;;;;;;;13.82;39.09;100257.69;5070511;28;19924;-80
2021/09/06 10:21:49;;;;;;;;;;;;;;;14.05;39.66;100266.75;5073730;28;19924;-80
2021/09/06 10:24:20;;;;;;;;;;;;;;;14.11;37.43;100268.25;5073864;28;20343;-80
2021/09/06 10:26:47;;;;;;;;;;;;;;;14.31;39.37;100251.22;5071795;28;19982;-80
2021/09/06 10:29:16;;;;;;;;;;;;;;;14.39;37.62;100265.34;5073552;28;19931;-80
2021/09/06 10:31:44;;;;;;;;;;;;;;;14.54;37.82;100263.03;5073485;28;19928;-80
2021/09/06 10:34:22;;;;;;;;;;;;;;;14.83;39.27;100249.84;5073357;28;20423;-80
2021/09/06 10:36:54;;;;;;;;;;;;;;;15.00;38.32;100253.50;5053842;28;19925;-79
2021/09/06 10:39:20;;;;;;;;;;;;;;;14.95;36.94;100244.56;5055739;28;19924;-80
2021/09/06 10:41:48;;;;;;;;;;;;;;;14.85;38.73;100242.91;5072929;28;19924;-80
2021/09/06 10:44:14;;;;;;;;;;;;;;;14.85;39.67;100245.66;5073478;28;19924;-80
2021/09/06 10:46:52;;;;;;;;;;;;;;;14.82;37.97;100248.25;5055348;28;20026;-80
2021/09/06 10:49:32;;;;;;;;;;;;;;;14.56;37.57;100252.50;5070856;28;19970;-80
2021/09/06 10:52:00;;;;;;;;;;;;;;;14.32;36.41;100257.53;5073218;28;19924;-81
2021/09/06 10:54:27;;;;;;;;;;;;;;;13.99;34.27;100265.25;5073288;28;19967;-80
2021/09/06 10:56:53;;;;;;;;;;;;;;;13.69;33.54;100259.34;5072912;28;19967;-80
2021/09/06 10:59:25;;;;;;;;;;;;;;;13.63;33.92;100253.16;5070939;28;19975;-81
2021/09/06 11:01:53;;;;;;;;;;;;;;;13.85;35.81;100251.56;5054901;28;19928;-80
2021/09/06 11:04:26;;;;;;;;;;;;;;;14.10;38.12;100248.19;5072487;28;20011;-77
2021/09/06 11:07:00;;;;;;;;;;;;;;;14.36;36.50;100241.19;5056334;28;20370;-77
2021/09/06 11:09:28;;;;;;;;;;;;;;;14.43;36.25;100238.81;5052714;28;20435;-77
2021/09/06 11:12:04;;;;;;;;;;;;;;;14.51;36.24;100251.84;5052954;28;20416;-77
2021/09/06 11:14:37;;;;;;;;;;;;;;;14.51;35.86;100236.13;5052636;28;19928;-77
2021/09/06 11:17:14;;;;;;;;;;;;;;;14.65;36.29;100236.03;5064373;28;19924;-76
2021/09/06 11:19:41;;;;;;;;;;;;;;;14.63;37.63;100232.78;5072752;28;19964;-77
2021/09/06 11:22:07;;;;;;;;;;;;;;;14.60;37.29;100233.41;5072514;28;20384;-77
2021/09/06 11:24:34;;;;;;;;;;;;;;;14.67;35.36;100233.78;5072596;28;19924;-77
2021/09/06 11:27:00;;;;;;;;;;;;;;;14.74;36.43;100230.56;5070611;28;19924;-77
2021/09/06 11:29:26;;;;;;;;;;;;;;;14.92;35.74;100226.72;5072304;28;19932;-77
2021/09/06 11:31:53;;;;;;;;;;;;;;;15.16;35.46;100231.00;5072306;28;19932;-77
2021/09/06 11:34:22;;;;;;;;;;;;;;;15.27;34.19;100227.63;5072475;28;20016;-77
2021/09/06 11:36:48;;;;;;;;;;;;;;;15.27;32.91;100224.88;5070843;28;19931;-76
2021/09/06 11:39:14;;;;;;;;;;;;;;;15.00;33.18;100225.16;5052339;28;19928;-77
2021/09/06 11:41:40;;;;;;;;;;;;;;;14.86;32.69;100228.00;5052431;28;19932;-78
2021/09/06 11:44:07;;;;;;;;;;;;;;;14.93;34.00;100224.78;5052060;28;19975;-77
2021/09/06 11:46:33;;;;;;;;;;;;;;;15.08;36.05;100221.59;5052378;28;19974;-77
2021/09/06 11:49:00;;;;;;;;;;;;;;;15.12;35.39;100228.06;5068468;28;20371;-77
2021/09/06 11:51:26;;;;;;;;;;;;;;;14.84;34.77;100221.22;5072370;28;19931;-77
2021/09/06 11:53:59;;;;;;;;;;;;;;;14.77;35.90;100218.94;5072034;28;19932;-77
2021/09/06 11:56:26;;;;;;;;;;;;;;;14.73;36.00;100215.16;5071983;28;20379;-80
2021/09/06 11:58:55;;;;;;;;;;;;;;;14.62;36.33;100217.41;5070032;28;19931;-80
2021/09/06 12:01:22;;;;;;;;;;;;;;;14.50;35.57;100211.66;5071379;28;19931;-80
2021/09/06 12:03:48;;;;;;;;;;;;;;;14.47;36.54;100213.13;5071888;28;19920;-80
2021/09/06 12:06:17;;;;;;;;;;;;;;;14.59;36.32;100200.72;5071791;28;19930;-80
2021/09/06 12:08:50;;;;;;;;;;;;;;;14.58;35.34;100210.91;5070103;28;20007;-81
2021/09/06 12:11:16;;;;;;;;;;;;;;;14.65;36.48;100208.50;5071794;28;19920;-80
2021/09/06 12:13:41;;;;;;;;;;;;;;;14.70;35.22;100216.63;5087114;28;19982;-80
2021/09/06 12:16:09;;;;;;;;;;;;;;;14.64;33.96;100215.16;5053903;28;20018;-81
2021/09/06 12:18:36;;;;;;;;;;;;;;;14.66;35.71;100220.31;5069873;28;20356;-80
2021/09/06 12:21:03;;;;;;;;;;;;;;;14.67;33.29;100214.53;5087495;28;20301;-85
2021/09/06 12:23:31;;;;;;;;;;;;;;;14.70;33.41;100216.63;5071631;28;19924;-80
2021/09/06 12:25:57;;;;;;;;;;;;;;;14.67;33.14;100211.78;5071576;28;19966;-80
2021/09/06 12:28:24;;;;;;;;;;;;;;;14.67;33.40;100216.44;5049101;28;19971;-80
2021/09/06 12:31:00;;;;;;;;;;;;;;;14.67;33.71;100210.94;5051511;28;20477;-82
2021/09/06 12:33:26;;;;;;;;;;;;;;;14.65;32.50;100203.00;5066976;28;20028;-82
2021/09/06 12:35:52;;;;;;;;;;;;;;;14.68;34.63;100196.06;5051458;28;19964;-81
2021/09/06 12:38:20;;;;;;;;;;;;;;;14.85;36.11;100204.38;5052251;28;19931;-80
2021/09/06 12:40:46;;;;;;;;;;;;;;;14.86;34.98;100199.66;5033618;28;20015;-81
2021/09/06 12:43:13;;;;;;;;;;;;;;;14.78;35.26;100206.78;5051305;28;19924;-81
2021/09/06 12:45:38;;;;;;;;;;;;;;;14.86;34.66;100203.22;5051379;28;19924;-81
2021/09/06 12:48:05;;;;;;;;;;;;;;;14.84;33.32;100202.75;5051298;28;19983;-81
2021/09/06 12:50:31;;;;;;;;;;;;;;;14.90;33.93;100206.97;5052403;28;19928;-81
2021/09/06 12:52:58;;;;;;;;;;;;;;;14.81;33.28;100195.13;5051343;28;19931;-82
2021/09/06 12:55:23;;;;;;;;;;;;;;;14.66;34.41;100199.13;5051199;28;19924;-81